sensor_id;sensor_type;location;lat;lon;timestamp;pressure;altitude;pressure_sealevel;temperature;humidity
35151;BME280;55720;51.972;4.624;2023-01-25T00:01:32;103140.69;;;0.57;100.00
35151;BME280;55720;51.972;4.624;2023-01-25T00:03:57;103144.84;;;0.53;100.00
35151;BME280;55720;51.972;4.624;2023-01-25T00:06:23;103144.19;;;0.51;100.00
35151;BME280;55720;51.972;4.624;2023-01-25T00:08:51;103142.34;;;0.45;100.00
35151;BME280;55720;51.972;4.624;2023-01-25T00:11:17;103140.69;;;0.51;100.00
35151;BME280;55720;51.972;4.624;2023-01-25T00:13:44;103127.16;;;0.57;100.00
35151;BME280;55720;51.972;4.624;2023-01-25T00:16:09;103122.59;;;0.58;100.00
35151;BME280;55720;51.972;4.624;2023-01-25T00:18:35;103126.34;;;0.50;100.00
35151;BME280;55720;51.972;4.624;2023-01-25T00:21:11;103116.34;;;0.57;100.00
35151;BME280;55720;51.972;4.624;2023-01-25T00:23:37;103114.88;;;0.55;100.00
35151;BME280;55720;51.972;4.624;2023-01-25T00:26:02;103116.34;;;0.44;100.00
35151;BME280;55720;51.972;4.624;2023-01-25T00:28:27;103117.19;;;0.44;100.00
35151;BME280;55720;51.972;4.624;2023-01-25T00:30:53;103113.44;;;0.45;100.00
35151;BME280;55720;51.972;4.624;2023-01-25T00:35:44;103095.13;;;0.47;100.00
35151;BME280;55720;51.972;4.624;2023-01-25T00:38:32;103093.28;;;0.48;100.00
35151;BME280;55720;51.972;4.624;2023-01-25T00:40:58;103089.16;;;0.39;100.00
35151;BME280;55720;51.972;4.624;2023-01-25T00:43:24;103093.31;;;0.28;100.00
35151;BME280;55720;51.972;4.624;2023-01-25T00:45:49;103092.88;;;0.31;100.00
35151;BME280;55720;51.972;4.624;2023-01-25T00:48:14;103090.78;;;0.33;100.00
35151;BME280;55720;51.972;4.624;2023-01-25T00:50:40;103083.75;;;0.39;100.00
35151;BME280;55720;51.972;4.624;2023-01-25T00:53:05;103082.91;;;0.38;100.00
35151;BME280;55720;51.972;4.624;2023-01-25T00:55:31;103084.78;;;0.38;100.00
35151;BME280;55720;51.972;4.624;2023-01-25T00:57:56;103089.97;;;0.26;100.00
35151;BME280;55720;51.972;4.624;2023-01-25T01:00:22;103090.19;;;0.38;100.00
35151;BME280;55720;51.972;4.624;2023-01-25T01:02:49;103087.88;;;0.41;100.00
35151;BME280;55720;51.972;4.624;2023-01-25T01:05:15;103089.56;;;0.36;100.00
35151;BME280;55720;51.972;4.624;2023-01-25T01:07:40;103091.00;;;0.38;100.00
35151;BME280;55720;51.972;4.624;2023-01-25T01:10:06;103089.16;;;0.32;100.00
35151;BME280;55720;51.972;4.624;2023-01-25T01:12:32;103088.72;;;0.22;100.00
35151;BME280;55720;51.972;4.624;2023-01-25T01:14:57;103080.00;;;0.27;100.00
35151;BME280;55720;51.972;4.624;2023-01-25T01:17:23;103075.22;;;0.29;100.00
35151;BME280;55720;51.972;4.624;2023-01-25T01:19:48;103078.34;;;0.32;100.00
35151;BME280;55720;51.972;4.624;2023-01-25T01:22:14;103072.53;;;0.29;100.00
35151;BME280;55720;51.972;4.624;2023-01-25T01:24:39;103082.09;;;0.31;100.00
35151;BME280;55720;51.972;4.624;2023-01-25T01:27:06;103075.84;;;0.24;100.00
35151;BME280;55720;51.972;4.624;2023-01-25T01:29:31;103086.88;;;0.36;100.00
35151;BME280;55720;51.972;4.624;2023-01-25T01:31:56;103082.69;;;0.33;100.00
35151;BME280;55720;51.972;4.624;2023-01-25T01:34:22;103086.22;;;0.40;100.00
35151;BME280;55720;51.972;4.624;2023-01-25T01:36:47;103087.47;;;0.38;100.00
35151;BME280;55720;51.972;4.624;2023-01-25T01:39:13;103085.59;;;0.38;100.00
35151;BME280;55720;51.972;4.624;2023-01-25T01:41:38;103086.84;;;0.29;100.00
35151;BME280;55720;51.972;4.624;2023-01-25T01:44:04;103075.66;;;0.32;100.00
35151;BME280;55720;51.972;4.624;2023-01-25T01:46:33;103079.56;;;0.36;100.00
35151;BME280;55720;51.972;4.624;2023-01-25T01:49:16;103076.06;;;0.36;100.00
35151;BME280;55720;51.972;4.624;2023-01-25T01:51:50;103085.41;;;0.20;100.00
35151;BME280;55720;51.972;4.624;2023-01-25T01:59:12;103085.41;;;0.20;100.00
35151;BME280;55720;51.972;4.624;2023-01-25T02:01:38;103086.22;;;0.08;100.00
35151;BME280;55720;51.972;4.624;2023-01-25T02:04:05;103086.25;;;0.14;100.00
35151;BME280;55720;51.972;4.624;2023-01-25T02:06:52;103085.63;;;0.25;100.00
35151;BME280;55720;51.972;4.624;2023-01-25T02:09:21;103079.56;;;0.30;100.00
35151;BME280;55720;51.972;4.624;2023-01-25T02:11:49;103070.88;;;0.21;100.00
35151;BME280;55720;51.972;4.624;2023-01-25T02:14:16;103071.47;;;0.23;100.00
35151;BME280;55720;51.972;4.624;2023-01-25T02:16:42;103073.34;;;0.29;100.00
35151;BME280;55720;51.972;4.624;2023-01-25T02:19:12;103074.16;;;0.30;100.00
35151;BME280;55720;51.972;4.624;2023-01-25T02:21:43;103071.28;;;0.25;100.00
35151;BME280;55720;51.972;4.624;2023-01-25T02:24:15;103069.63;;;0.24;100.00
35151;BME280;55720;51.972;4.624;2023-01-25T02:26:45;103068.38;;;0.13;100.00
35151;BME280;55720;51.972;4.624;2023-01-25T02:29:11;103067.97;;;0.10;100.00
35151;BME280;55720;51.972;4.624;2023-01-25T02:31:37;103060.88;;;0.15;100.00
35151;BME280;55720;51.972;4.624;2023-01-25T02:34:02;103064.84;;;0.13;100.00
35151;BME280;55720;51.972;4.624;2023-01-25T02:36:33;103060.28;;;0.13;100.00
35151;BME280;55720;51.972;4.624;2023-01-25T02:41:37;103052.59;;;0.10;100.00
35151;BME280;55720;51.972;4.624;2023-01-25T02:44:15;103053.81;;;0.08;100.00
35151;BME280;55720;51.972;4.624;2023-01-25T02:46:42;103053.63;;;0.09;100.00
35151;BME280;55720;51.972;4.624;2023-01-25T02:49:10;103032.84;;;0.10;100.00
35151;BME280;55720;51.972;4.624;2023-01-25T02:51:38;103049.03;;;-0.04;100.00
35151;BME280;55720;51.972;4.624;2023-01-25T02:54:06;103044.91;;;-0.13;100.00
35151;BME280;55720;51.972;4.624;2023-01-25T02:56:32;103039.72;;;-0.08;100.00
35151;BME280;55720;51.972;4.624;2023-01-25T02:58:57;103041.59;;;-0.15;100.00
35151;BME280;55720;51.972;4.624;2023-01-25T03:01:23;103033.50;;;-0.08;100.00
35151;BME280;55720;51.972;4.624;2023-01-25T03:03:49;103034.94;;;-0.06;100.00
35151;BME280;55720;51.972;4.624;2023-01-25T03:06:14;103027.25;;;-0.02;100.00
35151;BME280;55720;51.972;4.624;2023-01-25T03:08:41;103030.56;;;0.07;100.00
35151;BME280;55720;51.972;4.624;2023-01-25T03:11:06;103026.00;;;0.07;100.00
35151;BME280;55720;51.972;4.624;2023-01-25T03:13:33;103016.84;;;0.08;100.00
35151;BME280;55720;51.972;4.624;2023-01-25T03:16:01;103021.22;;;0.03;100.00
35151;BME280;55720;51.972;4.624;2023-01-25T03:18:27;103026.44;;;-0.16;100.00
35151;BME280;55720;51.972;4.624;2023-01-25T03:20:53;103013.94;;;-0.04;100.00
35151;BME280;55720;51.972;4.624;2023-01-25T03:23:18;103018.53;;;-0.24;100.00
35151;BME280;55720;51.972;4.624;2023-01-25T03:25:44;103015.00;;;-0.31;100.00
35151;BME280;55720;51.972;4.624;2023-01-25T03:28:09;103019.78;;;-0.20;100.00
35151;BME280;55720;51.972;4.624;2023-01-25T03:30:34;103007.31;;;-0.14;100.00
35151;BME280;55720;51.972;4.624;2023-01-25T03:33:00;102997.75;;;-0.17;100.00
35151;BME280;55720;51.972;4.624;2023-01-25T03:35:25;102996.94;;;-0.17;100.00
35151;BME280;55720;51.972;4.624;2023-01-25T03:37:50;102990.72;;;-0.11;100.00
35151;BME280;55720;51.972;4.624;2023-01-25T03:40:16;102990.06;;;-0.07;100.00
35151;BME280;55720;51.972;4.624;2023-01-25T03:42:41;102996.13;;;-0.11;100.00
35151;BME280;55720;51.972;4.624;2023-01-25T03:45:07;102986.75;;;-0.09;100.00
35151;BME280;55720;51.972;4.624;2023-01-25T03:47:32;102993.00;;;-0.15;100.00
35151;BME280;55720;51.972;4.624;2023-01-25T03:49:57;102987.78;;;-0.10;100.00
35151;BME280;55720;51.972;4.624;2023-01-25T03:52:23;102988.41;;;-0.01;100.00
35151;BME280;55720;51.972;4.624;2023-01-25T03:54:50;102985.50;;;-0.13;100.00
35151;BME280;55720;51.972;4.624;2023-01-25T03:57:16;102988.63;;;-0.22;100.00
35151;BME280;55720;51.972;4.624;2023-01-25T03:59:41;102985.53;;;-0.19;100.00
35151;BME280;55720;51.972;4.624;2023-01-25T04:02:06;102988.22;;;-0.19;100.00
35151;BME280;55720;51.972;4.624;2023-01-25T04:04:32;102994.84;;;-0.28;100.00
35151;BME280;55720;51.972;4.624;2023-01-25T04:06:57;102984.69;;;-0.26;100.00
35151;BME280;55720;51.972;4.624;2023-01-25T04:09:22;102992.97;;;-0.21;100.00
35151;BME280;55720;51.972;4.624;2023-01-25T04:11:49;102984.06;;;-0.22;100.00
35151;BME280;55720;51.972;4.624;2023-01-25T04:14:15;102987.78;;;-0.16;100.00
35151;BME280;55720;51.972;4.624;2023-01-25T04:16:40;102991.97;;;-0.40;100.00
35151;BME280;55720;51.972;4.624;2023-01-25T04:19:05;102981.78;;;-0.38;100.00
35151;BME280;55720;51.972;4.624;2023-01-25T04:21:31;102992.16;;;-0.35;100.00
35151;BME280;55720;51.972;4.624;2023-01-25T04:23:56;102981.16;;;-0.33;100.00
35151;BME280;55720;51.972;4.624;2023-01-25T04:26:22;102988.84;;;-0.37;100.00
35151;BME280;55720;51.972;4.624;2023-01-25T04:28:47;102991.75;;;-0.45;100.00
35151;BME280;55720;51.972;4.624;2023-01-25T04:31:12;102987.59;;;-0.41;100.00
35151;BME280;55720;51.972;4.624;2023-01-25T04:33:38;102983.44;;;-0.43;100.00
35151;BME280;55720;51.972;4.624;2023-01-25T04:36:03;102983.66;;;-0.45;100.00
35151;BME280;55720;51.972;4.624;2023-01-25T04:38:29;102971.81;;;-0.37;100.00
35151;BME280;55720;51.972;4.624;2023-01-25T04:40:55;102980.13;;;-0.45;100.00
35151;BME280;55720;51.972;4.624;2023-01-25T04:43:21;102965.38;;;-0.43;100.00
35151;BME280;55720;51.972;4.624;2023-01-25T04:45:46;102962.06;;;-0.38;100.00
35151;BME280;55720;51.972;4.624;2023-01-25T04:48:12;102963.91;;;-0.39;100.00
35151;BME280;55720;51.972;4.624;2023-01-25T04:50:39;102960.81;;;-0.42;100.00
35151;BME280;55720;51.972;4.624;2023-01-25T04:53:05;102960.63;;;-0.47;100.00
35151;BME280;55720;51.972;4.624;2023-01-25T04:55:31;102954.81;;;-0.44;100.00
35151;BME280;55720;51.972;4.624;2023-01-25T04:57:57;102950.00;;;-0.42;100.00
35151;BME280;55720;51.972;4.624;2023-01-25T05:00:22;102947.94;;;-0.40;100.00
35151;BME280;55720;51.972;4.624;2023-01-25T05:02:48;102944.63;;;-0.42;100.00
35151;BME280;55720;51.972;4.624;2023-01-25T05:05:13;102955.59;;;-0.57;100.00
35151;BME280;55720;51.972;4.624;2023-01-25T05:07:38;102961.00;;;-0.57;100.00
35151;BME280;55720;51.972;4.624;2023-01-25T05:10:04;102951.06;;;-0.57;100.00
35151;BME280;55720;51.972;4.624;2023-01-25T05:12:30;102950.84;;;-0.62;100.00
35151;BME280;55720;51.972;4.624;2023-01-25T05:14:55;102963.91;;;-0.72;100.00
35151;BME280;55720;51.972;4.624;2023-01-25T05:17:21;102942.31;;;-0.72;100.00
35151;BME280;55720;51.972;4.624;2023-01-25T05:19:46;102941.09;;;-0.56;100.00
35151;BME280;55720;51.972;4.624;2023-01-25T05:22:13;102955.19;;;-0.61;100.00
35151;BME280;55720;51.972;4.624;2023-01-25T05:24:39;102946.28;;;-0.55;100.00
35151;BME280;55720;51.972;4.624;2023-01-25T05:27:10;102943.78;;;-0.50;100.00
35151;BME280;55720;51.972;4.624;2023-01-25T05:29:40;102937.78;;;-0.45;100.00
35151;BME280;55720;51.972;4.624;2023-01-25T05:32:08;102941.69;;;-0.54;100.00
35151;BME280;55720;51.972;4.624;2023-01-25T05:34:34;102936.94;;;-0.52;100.00
35151;BME280;55720;51.972;4.624;2023-01-25T05:37:00;102943.97;;;-0.58;100.00
35151;BME280;55720;51.972;4.624;2023-01-25T05:39:26;102940.66;;;-0.46;100.00
35151;BME280;55720;51.972;4.624;2023-01-25T05:41:51;102930.69;;;-0.39;100.00
35151;BME280;55720;51.972;4.624;2023-01-25T05:44:17;102935.91;;;-0.44;100.00
35151;BME280;55720;51.972;4.624;2023-01-25T05:46:43;102932.78;;;-0.41;100.00
35151;BME280;55720;51.972;4.624;2023-01-25T05:49:08;102936.50;;;-0.42;100.00
35151;BME280;55720;51.972;4.624;2023-01-25T05:51:34;102928.00;;;-0.39;100.00
35151;BME280;55720;51.972;4.624;2023-01-25T05:54:01;102932.16;;;-0.30;100.00
35151;BME280;55720;51.972;4.624;2023-01-25T05:56:27;102941.28;;;-0.31;100.00
35151;BME280;55720;51.972;4.624;2023-01-25T05:58:57;102937.56;;;-0.30;100.00
35151;BME280;55720;51.972;4.624;2023-01-25T06:01:23;102936.13;;;-0.33;100.00
35151;BME280;55720;51.972;4.624;2023-01-25T06:03:49;102936.13;;;-0.33;100.00
35151;BME280;55720;51.972;4.624;2023-01-25T06:06:15;102939.44;;;-0.37;100.00
35151;BME280;55720;51.972;4.624;2023-01-25T06:08:40;102940.88;;;-0.35;100.00
35151;BME280;55720;51.972;4.624;2023-01-25T06:11:10;102935.28;;;-0.33;100.00
35151;BME280;55720;51.972;4.624;2023-01-25T06:13:36;102943.16;;;-0.38;100.00
35151;BME280;55720;51.972;4.624;2023-01-25T06:16:02;102938.38;;;-0.50;100.00
35151;BME280;55720;51.972;4.624;2023-01-25T06:18:29;102946.06;;;-0.46;100.00
35151;BME280;55720;51.972;4.624;2023-01-25T06:20:56;102940.88;;;-0.41;100.00
35151;BME280;55720;51.972;4.624;2023-01-25T06:23:41;102934.03;;;-0.37;100.00
35151;BME280;55720;51.972;4.624;2023-01-25T06:26:09;102942.31;;;-0.32;100.00
35151;BME280;55720;51.972;4.624;2023-01-25T06:28:36;102940.03;;;-0.35;100.00
35151;BME280;55720;51.972;4.624;2023-01-25T06:31:03;102937.56;;;-0.43;100.00
35151;BME280;55720;51.972;4.624;2023-01-25T06:33:29;102934.03;;;-0.37;100.00
35151;BME280;55720;51.972;4.624;2023-01-25T06:36:02;102940.25;;;-0.30;100.00
35151;BME280;55720;51.972;4.624;2023-01-25T06:38:28;102935.88;;;-0.31;100.00
35151;BME280;55720;51.972;4.624;2023-01-25T06:40:53;102940.03;;;-0.29;100.00
35151;BME280;55720;51.972;4.624;2023-01-25T06:43:18;102924.47;;;-0.27;100.00
35151;BME280;55720;51.972;4.624;2023-01-25T06:45:44;102934.00;;;-0.24;100.00
35151;BME280;55720;51.972;4.624;2023-01-25T06:48:09;102930.69;;;-0.20;100.00
35151;BME280;55720;51.972;4.624;2023-01-25T06:50:34;102934.63;;;-0.16;100.00
35151;BME280;55720;51.972;4.624;2023-01-25T06:53:00;102931.31;;;-0.11;100.00
35151;BME280;55720;51.972;4.624;2023-01-25T06:55:25;102927.38;;;-0.15;100.00
35151;BME280;55720;51.972;4.624;2023-01-25T06:57:50;102921.56;;;-0.19;100.00
35151;BME280;55720;51.972;4.624;2023-01-25T07:00:16;102927.38;;;-0.22;100.00
35151;BME280;55720;51.972;4.624;2023-01-25T07:02:42;102924.47;;;-0.20;100.00
35151;BME280;55720;51.972;4.624;2023-01-25T07:05:07;102931.13;;;-0.23;100.00
35151;BME280;55720;51.972;4.624;2023-01-25T07:07:33;102926.72;;;-0.17;100.00
35151;BME280;55720;51.972;4.624;2023-01-25T07:09:58;102924.47;;;-0.27;100.00
35151;BME280;55720;51.972;4.624;2023-01-25T07:12:27;102914.94;;;-0.29;100.00
35151;BME280;55720;51.972;4.624;2023-01-25T07:14:53;102917.03;;;-0.44;100.00
35151;BME280;55720;51.972;4.624;2023-01-25T07:17:18;102928.03;;;-0.33;100.00
35151;BME280;55720;51.972;4.624;2023-01-25T07:19:44;102925.94;;;-0.31;100.00
35151;BME280;55720;51.972;4.624;2023-01-25T07:22:09;102919.69;;;-0.25;100.00
35151;BME280;55720;51.972;4.624;2023-01-25T07:24:34;102932.97;;;-0.23;100.00
35151;BME280;55720;51.972;4.624;2023-01-25T07:27:00;102931.31;;;-0.31;100.00
35151;BME280;55720;51.972;4.624;2023-01-25T07:29:25;102928.63;;;-0.31;100.00
35151;BME280;55720;51.972;4.624;2023-01-25T07:31:50;102922.59;;;-0.26;100.00
35151;BME280;55720;51.972;4.624;2023-01-25T07:34:16;102923.63;;;-0.21;100.00
35151;BME280;55720;51.972;4.624;2023-01-25T07:36:41;102924.25;;;-0.25;100.00
35151;BME280;55720;51.972;4.624;2023-01-25T07:39:11;102904.09;;;-0.16;100.00
35151;BME280;55720;51.972;4.624;2023-01-25T07:41:36;102906.41;;;-0.20;100.00
35151;BME280;55720;51.972;4.624;2023-01-25T07:44:02;102898.09;;;-0.18;100.00
35151;BME280;55720;51.972;4.624;2023-01-25T07:46:28;102901.84;;;-0.26;100.00
35151;BME280;55720;51.972;4.624;2023-01-25T07:48:53;102901.00;;;-0.26;100.00
35151;BME280;55720;51.972;4.624;2023-01-25T07:51:20;102895.19;;;-0.23;100.00
35151;BME280;55720;51.972;4.624;2023-01-25T07:53:58;102886.88;;;-0.15;100.00
35151;BME280;55720;51.972;4.624;2023-01-25T07:56:26;102891.03;;;-0.19;100.00
35151;BME280;55720;51.972;4.624;2023-01-25T07:58:53;102890.22;;;-0.33;100.00
35151;BME280;55720;51.972;4.624;2023-01-25T08:01:21;102882.13;;;-0.39;100.00
35151;BME280;55720;51.972;4.624;2023-01-25T08:03:47;102881.31;;;-0.33;100.00
35151;BME280;55720;51.972;4.624;2023-01-25T08:06:13;102892.28;;;-0.35;100.00
35151;BME280;55720;51.972;4.624;2023-01-25T08:08:45;102891.03;;;-0.32;100.00
35151;BME280;55720;51.972;4.624;2023-01-25T08:11:17;102878.78;;;-0.22;100.00
35151;BME280;55720;51.972;4.624;2023-01-25T08:13:42;102889.78;;;-0.23;100.00
35151;BME280;55720;51.972;4.624;2023-01-25T08:16:12;102877.31;;;-0.18;100.00
35151;BME280;55720;51.972;4.624;2023-01-25T08:18:37;102881.88;;;-0.12;100.00
35151;BME280;55720;51.972;4.624;2023-01-25T08:21:03;102875.44;;;-0.17;100.00
35151;BME280;55720;51.972;4.624;2023-01-25T08:23:29;102889.75;;;-0.10;100.00
35151;BME280;55720;51.972;4.624;2023-01-25T08:25:54;102888.72;;;-0.09;100.00
35151;BME280;55720;51.972;4.624;2023-01-25T08:28:21;102888.72;;;-0.09;100.00
35151;BME280;55720;51.972;4.624;2023-01-25T08:30:47;102887.91;;;-0.16;100.00
35151;BME280;55720;51.972;4.624;2023-01-25T08:33:12;102891.44;;;-0.29;100.00
35151;BME280;55720;51.972;4.624;2023-01-25T08:35:37;102883.59;;;-0.37;100.00
35151;BME280;55720;51.972;4.624;2023-01-25T08:38:03;102896.44;;;-0.26;100.00
35151;BME280;55720;51.972;4.624;2023-01-25T08:40:29;102897.25;;;-0.25;100.00
35151;BME280;55720;51.972;4.624;2023-01-25T08:42:54;102892.91;;;-0.39;100.00
35151;BME280;55720;51.972;4.624;2023-01-25T08:45:19;102889.41;;;-0.33;100.00
35151;BME280;55720;51.972;4.624;2023-01-25T08:47:45;102880.03;;;-0.24;100.00
35151;BME280;55720;51.972;4.624;2023-01-25T08:50:10;102878.13;;;-0.17;100.00
35151;BME280;55720;51.972;4.624;2023-01-25T08:52:36;102878.78;;;-0.22;100.00
35151;BME280;55720;51.972;4.624;2023-01-25T08:55:01;102883.97;;;-0.27;100.00
35151;BME280;55720;51.972;4.624;2023-01-25T08:57:26;102882.09;;;-0.20;100.00
35151;BME280;55720;51.972;4.624;2023-01-25T08:59:52;102872.72;;;-0.11;100.00
35151;BME280;55720;51.972;4.624;2023-01-25T09:02:17;102880.19;;;-0.06;100.00
35151;BME280;55720;51.972;4.624;2023-01-25T09:04:43;102877.88;;;0.04;100.00
35151;BME280;55720;51.972;4.624;2023-01-25T09:07:09;102874.34;;;-0.03;100.00
35151;BME280;55720;51.972;4.624;2023-01-25T09:09:35;102867.72;;;-0.01;100.00
35151;BME280;55720;51.972;4.624;2023-01-25T09:12:00;102866.44;;;0.09;100.00
35151;BME280;55720;51.972;4.624;2023-01-25T09:14:25;102868.28;;;0.08;100.00
35151;BME280;55720;51.972;4.624;2023-01-25T09:16:51;102871.84;;;0.09;100.00
35151;BME280;55720;51.972;4.624;2023-01-25T09:19:16;102866.22;;;0.10;100.00
35151;BME280;55720;51.972;4.624;2023-01-25T09:21:41;102865.97;;;0.18;100.00
35151;BME280;55720;51.972;4.624;2023-01-25T09:24:07;102874.28;;;0.23;100.00
35151;BME280;55720;51.972;4.624;2023-01-25T09:26:34;102869.06;;;0.28;100.00
35151;BME280;55720;51.972;4.624;2023-01-25T09:29:00;102871.75;;;0.28;100.00
35151;BME280;55720;51.972;4.624;2023-01-25T09:31:25;102865.69;;;0.33;100.00
35151;BME280;55720;51.972;4.624;2023-01-25T09:33:51;102871.53;;;0.30;100.00
35151;BME280;55720;51.972;4.624;2023-01-25T09:36:17;102870.31;;;0.32;100.00
35151;BME280;55720;51.972;4.624;2023-01-25T09:38:42;102864.47;;;0.35;100.00
35151;BME280;55720;51.972;4.624;2023-01-25T09:51:39;102868.19;;;0.34;100.00
35151;BME280;55720;51.972;4.624;2023-01-25T09:54:11;102865.94;;;0.31;100.00
35151;BME280;55720;51.972;4.624;2023-01-25T09:56:37;102869.88;;;0.35;100.00
35151;BME280;55720;51.972;4.624;2023-01-25T09:59:12;102874.19;;;0.36;100.00
35151;BME280;55720;51.972;4.624;2023-01-25T10:02:09;102867.13;;;0.42;100.00
35151;BME280;55720;51.972;4.624;2023-01-25T10:04:42;102868.13;;;0.47;100.00
35151;BME280;55720;51.972;4.624;2023-01-25T10:07:20;102861.50;;;0.43;100.00
35151;BME280;55720;51.972;4.624;2023-01-25T10:10:11;102863.53;;;0.48;100.00
35151;BME280;55720;51.972;4.624;2023-01-25T10:12:38;102866.28;;;0.41;100.00
35151;BME280;55720;51.972;4.624;2023-01-25T10:15:28;102855.25;;;0.49;100.00
35151;BME280;55720;51.972;4.624;2023-01-25T10:18:03;102859.28;;;0.27;100.00
35151;BME280;55720;51.972;4.624;2023-01-25T10:20:46;102851.78;;;0.36;100.00
35151;BME280;55720;51.972;4.624;2023-01-25T10:25:56;102841.09;;;0.54;100.00
35151;BME280;55720;51.972;4.624;2023-01-25T10:28:39;102846.28;;;0.49;100.00
35151;BME280;55720;51.972;4.624;2023-01-25T10:31:16;102852.75;;;0.48;100.00
35151;BME280;55720;51.972;4.624;2023-01-25T10:33:43;102844.19;;;0.58;100.00
35151;BME280;55720;51.972;4.624;2023-01-25T10:36:19;102854.50;;;0.29;100.00
35151;BME280;55720;51.972;4.624;2023-01-25T10:38:46;102841.53;;;0.44;100.00
35151;BME280;55720;51.972;4.624;2023-01-25T10:41:35;102838.69;;;0.71;100.00
35151;BME280;55720;51.972;4.624;2023-01-25T10:44:02;102832.38;;;0.77;100.00
35151;BME280;55720;51.972;4.624;2023-01-25T10:46:48;102841.97;;;0.79;100.00
35151;BME280;55720;51.972;4.624;2023-01-25T10:49:23;102840.50;;;0.77;100.00
35151;BME280;55720;51.972;4.624;2023-01-25T10:51:49;102848.66;;;0.70;100.00
35151;BME280;55720;51.972;4.624;2023-01-25T10:54:15;102853.47;;;0.62;100.00
35151;BME280;55720;51.972;4.624;2023-01-25T10:56:41;102843.75;;;0.61;100.00
35151;BME280;55720;51.972;4.624;2023-01-25T11:01:41;102815.63;;;0.93;100.00
35151;BME280;55720;51.972;4.624;2023-01-25T11:04:32;102811.22;;;0.98;100.00
35151;BME280;55720;51.972;4.624;2023-01-25T11:07:10;102814.03;;;1.10;100.00
35151;BME280;55720;51.972;4.624;2023-01-25T11:09:48;102819.41;;;0.61;100.00
35151;BME280;55720;51.972;4.624;2023-01-25T11:12:17;102818.91;;;0.39;100.00
35151;BME280;55720;51.972;4.624;2023-01-25T11:14:43;102811.22;;;0.42;100.00
35151;BME280;55720;51.972;4.624;2023-01-25T11:17:22;102799.97;;;0.45;100.00
35151;BME280;55720;51.972;4.624;2023-01-25T11:19:48;102787.63;;;0.81;100.00
35151;BME280;55720;51.972;4.624;2023-01-25T11:22:28;102788.59;;;0.68;100.00
35151;BME280;55720;51.972;4.624;2023-01-25T11:24:53;102794.06;;;0.55;100.00
35151;BME280;55720;51.972;4.624;2023-01-25T11:27:24;102800.66;;;0.34;100.00
35151;BME280;55720;51.972;4.624;2023-01-25T11:30:11;102779.88;;;0.35;100.00
35151;BME280;55720;51.972;4.624;2023-01-25T11:32:40;102768.63;;;0.38;100.00
35151;BME280;55720;51.972;4.624;2023-01-25T11:35:18;102754.78;;;0.53;100.00
35151;BME280;55720;51.972;4.624;2023-01-25T11:38:05;102751.41;;;0.32;100.00
35151;BME280;55720;51.972;4.624;2023-01-25T11:40:47;102735.53;;;0.42;100.00
35151;BME280;55720;51.972;4.624;2023-01-25T11:46:22;102716.38;;;0.75;100.00
35151;BME280;55720;51.972;4.624;2023-01-25T11:51:26;102711.63;;;0.71;100.00
35151;BME280;55720;51.972;4.624;2023-01-25T12:05:04;102695.97;;;0.73;100.00
35151;BME280;55720;51.972;4.624;2023-01-25T12:10:18;102697.66;;;0.49;100.00
35151;BME280;55720;51.972;4.624;2023-01-25T12:13:00;102690.25;;;0.38;100.00
35151;BME280;55720;51.972;4.624;2023-01-25T12:18:44;102663.28;;;0.56;100.00
35151;BME280;55720;51.972;4.624;2023-01-25T12:21:25;102653.94;;;0.77;100.00
35151;BME280;55720;51.972;4.624;2023-01-25T12:24:08;102646.84;;;0.82;100.00
35151;BME280;55720;51.972;4.624;2023-01-25T12:26:45;102654.66;;;0.66;100.00
35151;BME280;55720;51.972;4.624;2023-01-25T12:29:34;102653.56;;;0.73;100.00
35151;BME280;55720;51.972;4.624;2023-01-25T12:32:07;102642.53;;;0.75;100.00
35151;BME280;55720;51.972;4.624;2023-01-25T12:34:39;102636.53;;;0.91;100.00
35151;BME280;55720;51.972;4.624;2023-01-25T12:37:14;102629.69;;;0.88;100.00
35151;BME280;55720;51.972;4.624;2023-01-25T12:39:54;102621.13;;;0.91;100.00
35151;BME280;55720;51.972;4.624;2023-01-25T12:42:25;102622.19;;;0.72;100.00
35151;BME280;55720;51.972;4.624;2023-01-25T12:44:58;102630.97;;;0.18;100.00
35151;BME280;55720;51.972;4.624;2023-01-25T12:47:38;102620.13;;;0.49;100.00
35151;BME280;55720;51.972;4.624;2023-01-25T12:50:46;102611.63;;;0.46;100.00
35151;BME280;55720;51.972;4.624;2023-01-25T12:53:26;102608.47;;;0.49;100.00
35151;BME280;55720;51.972;4.624;2023-01-25T12:55:52;102601.59;;;0.53;100.00
35151;BME280;55720;51.972;4.624;2023-01-25T12:58:32;102606.50;;;0.38;100.00
35151;BME280;55720;51.972;4.624;2023-01-25T13:09:05;102593.66;;;0.09;100.00
35151;BME280;55720;51.972;4.624;2023-01-25T13:11:43;102582.84;;;0.09;100.00
35151;BME280;55720;51.972;4.624;2023-01-25T13:19:41;102574.94;;;-0.18;100.00
35151;BME280;55720;51.972;4.624;2023-01-25T13:22:08;102551.66;;;0.13;100.00
35151;BME280;55720;51.972;4.624;2023-01-25T13:27:27;102548.84;;;0.01;100.00
35151;BME280;55720;51.972;4.624;2023-01-25T13:30:01;102546.31;;;0.06;100.00
35151;BME280;55720;51.972;4.624;2023-01-25T13:40:36;102513.56;;;0.21;100.00
35151;BME280;55720;51.972;4.624;2023-01-25T13:43:18;102502.91;;;0.26;100.00
35151;BME280;55720;51.972;4.624;2023-01-25T13:45:45;102499.91;;;0.16;100.00
35151;BME280;55720;51.972;4.624;2023-01-25T13:48:14;102495.56;;;0.33;100.00
35151;BME280;55720;51.972;4.624;2023-01-25T13:50:47;102492.72;;;0.28;100.00
35151;BME280;55720;51.972;4.624;2023-01-25T13:55:41;102496.25;;;0.28;100.00
35151;BME280;55720;51.972;4.624;2023-01-25T13:58:16;102494.78;;;0.26;100.00
35151;BME280;55720;51.972;4.624;2023-01-25T14:00:54;102490.69;;;0.23;100.00
35151;BME280;55720;51.972;4.624;2023-01-25T14:03:30;102486.56;;;0.21;100.00
35151;BME280;55720;51.972;4.624;2023-01-25T14:05:58;102486.25;;;0.11;100.00
35151;BME280;55720;51.972;4.624;2023-01-25T14:08:27;102482.28;;;0.13;100.00